Time;durP1;ratioP1;P1;durP2;ratioP2;P2;SDS_P1;SDS_P2;PMS_P1;PMS_P2;Temp;Humidity;BMP_temperature;BMP_pressure;BME280_temperature;BME280_humidity;BME280_pressure;Samples;Min_cycle;Max_cycle;Signal;HPM_P1;HPM_P2
2023/10/28 00:01:12;;;;;;;0.93;0.57;;;;;;;;;;5019180;28;20206;-57
2023/10/28 00:03:40;;;;;;;0.75;0.52;;;;;;;;;;5019634;28;20252;-57
2023/10/28 00:06:08;;;;;;;0.60;0.60;;;;;;;;;;5019425;28;20213;-57
2023/10/28 00:08:39;;;;;;;1.08;0.60;;;;;;;;;;5019069;28;20272;-57
2023/10/28 00:11:07;;;;;;;0.50;0.50;;;;;;;;;;5019493;28;20218;-57
2023/10/28 00:13:35;;;;;;;1.08;0.57;;;;;;;;;;5019262;28;20610;-57
2023/10/28 00:16:02;;;;;;;1.00;0.60;;;;;;;;;;5018119;28;20213;-57
2023/10/28 00:18:29;;;;;;;0.75;0.70;;;;;;;;;;5018889;28;20226;-57
2023/10/28 00:20:57;;;;;;;0.88;0.55;;;;;;;;;;5019118;28;20213;-57
2023/10/28 00:23:25;;;;;;;1.00;0.52;;;;;;;;;;5018774;28;20206;-57
2023/10/28 00:26:01;;;;;;;1.05;0.52;;;;;;;;;;5019564;28;20206;-57
2023/10/28 00:28:32;;;;;;;0.70;0.57;;;;;;;;;;5019079;28;20202;-57
2023/10/28 00:31:01;;;;;;;0.50;0.50;;;;;;;;;;5018983;28;20329;-57
2023/10/28 00:33:28;;;;;;;0.50;0.50;;;;;;;;;;5019095;28;20326;-57
2023/10/28 00:35:56;;;;;;;0.80;0.60;;;;;;;;;;5018895;28;20464;-57
2023/10/28 00:38:23;;;;;;;0.40;0.40;;;;;;;;;;5018683;28;20237;-57
2023/10/28 00:40:50;;;;;;;0.50;0.50;;;;;;;;;;5018819;28;20206;-57
2023/10/28 00:43:24;;;;;;;1.20;0.60;;;;;;;;;;5019125;28;20288;-57
2023/10/28 00:45:54;;;;;;;0.40;0.40;;;;;;;;;;5019003;28;20574;-57
2023/10/28 00:48:22;;;;;;;0.95;0.50;;;;;;;;;;5018567;28;20202;-57
2023/10/28 00:50:49;;;;;;;0.40;0.40;;;;;;;;;;5018218;28;20246;-57
2023/10/28 00:53:18;;;;;;;0.52;0.50;;;;;;;;;;5018022;28;20206;-57
2023/10/28 00:55:45;;;;;;;0.47;0.47;;;;;;;;;;5018515;28;20225;-57
2023/10/28 00:58:12;;;;;;;0.80;0.60;;;;;;;;;;5018410;28;20605;-57
2023/10/28 01:00:41;;;;;;;0.65;0.60;;;;;;;;;;5018476;28;20593;-57
2023/10/28 01:03:09;;;;;;;0.47;0.47;;;;;;;;;;5018887;28;20257;-57
2023/10/28 01:05:36;;;;;;;0.50;0.50;;;;;;;;;;5018291;28;20211;-57
2023/10/28 01:08:04;;;;;;;0.90;0.50;;;;;;;;;;5018528;28;20206;-57
2023/10/28 01:10:33;;;;;;;0.47;0.47;;;;;;;;;;5018273;28;20232;-57
2023/10/28 01:13:00;;;;;;;0.50;0.43;;;;;;;;;;5018307;28;20213;-57
2023/10/28 01:15:28;;;;;;;0.60;0.60;;;;;;;;;;5018354;28;20557;-57
2023/10/28 01:17:58;;;;;;;0.60;0.50;;;;;;;;;;5018419;28;20460;-57
2023/10/28 01:20:25;;;;;;;0.77;0.47;;;;;;;;;;5017974;28;20250;-57
2023/10/28 01:22:54;;;;;;;0.60;0.60;;;;;;;;;;5018273;28;20206;-57
2023/10/28 01:25:21;;;;;;;0.70;0.70;;;;;;;;;;5018032;28;20216;-57
2023/10/28 01:27:49;;;;;;;0.60;0.60;;;;;;;;;;5017744;28;20606;-57
2023/10/28 01:30:17;;;;;;;1.05;0.55;;;;;;;;;;5018151;28;20202;-57
2023/10/28 01:32:45;;;;;;;0.52;0.52;;;;;;;;;;5017851;28;20206;-57
2023/10/28 01:35:13;;;;;;;0.68;0.60;;;;;;;;;;5017529;28;20518;-58
2023/10/28 01:37:40;;;;;;;1.15;0.60;;;;;;;;;;5018241;28;20210;-58
2023/10/28 01:40:12;;;;;;;0.50;0.50;;;;;;;;;;5017795;28;20237;-58
2023/10/28 01:42:40;;;;;;;0.70;0.45;;;;;;;;;;5017920;28;20210;-58
2023/10/28 01:45:09;;;;;;;1.25;0.50;;;;;;;;;;5017883;28;20234;-58
2023/10/28 01:47:37;;;;;;;0.68;0.50;;;;;;;;;;5017705;28;20284;-57
2023/10/28 01:50:05;;;;;;;0.60;0.60;;;;;;;;;;5017689;28;20213;-57
2023/10/28 01:52:32;;;;;;;0.40;0.40;;;;;;;;;;5017143;28;20242;-57
2023/10/28 01:55:00;;;;;;;0.63;0.50;;;;;;;;;;5017398;28;20217;-57
2023/10/28 01:57:29;;;;;;;0.75;0.55;;;;;;;;;;5017261;28;20602;-57
2023/10/28 01:59:58;;;;;;;1.27;0.57;;;;;;;;;;5017139;28;20244;-57
2023/10/28 02:02:25;;;;;;;0.60;0.60;;;;;;;;;;5017606;28;20214;-57
2023/10/28 02:04:52;;;;;;;0.80;0.45;;;;;;;;;;5017523;28;20221;-57
2023/10/28 02:07:20;;;;;;;0.43;0.43;;;;;;;;;;5017590;28;20217;-57
2023/10/28 02:09:48;;;;;;;0.60;0.60;;;;;;;;;;5017635;28;20209;-57
2023/10/28 02:12:15;;;;;;;0.60;0.50;;;;;;;;;;5017264;28;20206;-57
2023/10/28 02:14:46;;;;;;;0.50;0.50;;;;;;;;;;5017199;28;20213;-57
2023/10/28 02:17:13;;;;;;;0.50;0.50;;;;;;;;;;5017705;28;20600;-57
2023/10/28 02:19:41;;;;;;;0.70;0.50;;;;;;;;;;5017175;28;20230;-57
2023/10/28 02:22:10;;;;;;;0.40;0.35;;;;;;;;;;5017512;28;20210;-57
2023/10/28 02:24:38;;;;;;;0.63;0.50;;;;;;;;;;5017395;28;20256;-57
2023/10/28 02:27:05;;;;;;;0.70;0.70;;;;;;;;;;5017511;28;20206;-57
2023/10/28 02:29:32;;;;;;;0.70;0.57;;;;;;;;;;5017426;28;20212;-57
2023/10/28 02:32:01;;;;;;;0.85;0.70;;;;;;;;;;5017493;28;20207;-57
2023/10/28 02:34:29;;;;;;;0.50;0.50;;;;;;;;;;5017385;28;20206;-57
2023/10/28 02:36:56;;;;;;;1.02;0.60;;;;;;;;;;5017343;28;20213;-57
2023/10/28 02:39:26;;;;;;;1.00;0.65;;;;;;;;;;5018330;28;20257;-57
2023/10/28 02:41:54;;;;;;;0.60;0.60;;;;;;;;;;5021365;28;20300;-57
2023/10/28 02:44:21;;;;;;;0.80;0.70;;;;;;;;;;5020966;28;20668;-57
2023/10/28 02:46:48;;;;;;;0.60;0.60;;;;;;;;;;5021317;28;20209;-57
2023/10/28 02:49:17;;;;;;;1.00;0.70;;;;;;;;;;5021299;28;20210;-57
2023/10/28 02:51:45;;;;;;;0.60;0.60;;;;;;;;;;5020712;28;20230;-57
2023/10/28 02:54:13;;;;;;;0.77;0.70;;;;;;;;;;5020865;28;20213;-57
2023/10/28 02:56:40;;;;;;;0.55;0.50;;;;;;;;;;5020927;28;20586;-57
2023/10/28 02:59:08;;;;;;;0.60;0.57;;;;;;;;;;5020871;28;20245;-57
2023/10/28 03:01:38;;;;;;;0.55;0.55;;;;;;;;;;5020922;28;20206;-57
2023/10/28 03:04:06;;;;;;;0.60;0.60;;;;;;;;;;5021039;28;20207;-57
2023/10/28 03:06:35;;;;;;;0.70;0.70;;;;;;;;;;5020682;28;20206;-57
2023/10/28 03:09:02;;;;;;;0.70;0.50;;;;;;;;;;5020853;28;20206;-58
2023/10/28 03:11:29;;;;;;;0.75;0.50;;;;;;;;;;5020276;28;20464;-58
2023/10/28 03:13:57;;;;;;;0.63;0.63;;;;;;;;;;5020948;28;20213;-58
2023/10/28 03:16:24;;;;;;;0.60;0.40;;;;;;;;;;5020655;28;20217;-58
2023/10/28 03:18:52;;;;;;;0.50;0.50;;;;;;;;;;5020302;28;20217;-58
2023/10/28 03:21:20;;;;;;;0.52;0.52;;;;;;;;;;5020358;28;20206;-58
2023/10/28 03:23:49;;;;;;;0.43;0.43;;;;;;;;;;5020424;28;20279;-58
2023/10/28 03:26:16;;;;;;;0.70;0.43;;;;;;;;;;5020518;28;20575;-58
2023/10/28 03:28:43;;;;;;;0.70;0.50;;;;;;;;;;5020458;28;20597;-58
2023/10/28 03:31:11;;;;;;;0.60;0.60;;;;;;;;;;5020053;28;20203;-58
2023/10/28 03:33:39;;;;;;;0.70;0.50;;;;;;;;;;5019445;28;20260;-58
2023/10/28 03:36:08;;;;;;;0.50;0.50;;;;;;;;;;5019299;28;20657;-58
2023/10/28 03:38:35;;;;;;;0.70;0.40;;;;;;;;;;5019686;28;20206;-58
2023/10/28 03:41:08;;;;;;;0.52;0.50;;;;;;;;;;5020006;28;20649;-58
2023/10/28 03:43:35;;;;;;;0.70;0.60;;;;;;;;;;5020139;28;20206;-58
2023/10/28 03:46:03;;;;;;;0.65;0.65;;;;;;;;;;5019660;28;20216;-58
2023/10/28 03:48:30;;;;;;;0.50;0.50;;;;;;;;;;5019442;28;20202;-58
2023/10/28 03:50:58;;;;;;;0.50;0.50;;;;;;;;;;5019435;28;20626;-58
2023/10/28 03:53:27;;;;;;;0.50;0.50;;;;;;;;;;5019801;28;20470;-58
2023/10/28 03:55:54;;;;;;;0.60;0.60;;;;;;;;;;5019818;28;20218;-58
2023/10/28 03:58:23;;;;;;;0.70;0.60;;;;;;;;;;5020004;28;20232;-58
2023/10/28 04:00:53;;;;;;;0.52;0.52;;;;;;;;;;5019026;28;20330;-58
2023/10/28 04:03:21;;;;;;;0.50;0.50;;;;;;;;;;5019793;28;20572;-58
2023/10/28 04:05:48;;;;;;;0.40;0.40;;;;;;;;;;5019523;28;20214;-58
2023/10/28 04:08:15;;;;;;;0.50;0.50;;;;;;;;;;5019055;28;20493;-58
2023/10/28 04:10:43;;;;;;;0.50;0.50;;;;;;;;;;5019453;28;20551;-58
2023/10/28 04:13:12;;;;;;;0.40;0.40;;;;;;;;;;5019459;28;20221;-58
2023/10/28 04:15:42;;;;;;;0.55;0.55;;;;;;;;;;5019262;28;20206;-58
2023/10/28 04:18:09;;;;;;;0.50;0.50;;;;;;;;;;5019364;28;20210;-58
2023/10/28 04:20:37;;;;;;;0.60;0.60;;;;;;;;;;5019122;28;20237;-58
2023/10/28 04:23:05;;;;;;;0.40;0.40;;;;;;;;;;5018971;28;20210;-58
2023/10/28 04:25:33;;;;;;;0.50;0.45;;;;;;;;;;5018467;28;20293;-58
2023/10/28 04:28:02;;;;;;;0.50;0.50;;;;;;;;;;5019247;28;20483;-58
2023/10/28 04:30:30;;;;;;;0.50;0.50;;;;;;;;;;5019002;28;20567;-58
2023/10/28 04:32:58;;;;;;;0.50;0.50;;;;;;;;;;5018637;28;20253;-58
2023/10/28 04:35:26;;;;;;;0.50;0.50;;;;;;;;;;5019206;28;20533;-58
2023/10/28 04:37:53;;;;;;;0.60;0.40;;;;;;;;;;5018740;28;20214;-58
2023/10/28 04:40:20;;;;;;;0.50;0.50;;;;;;;;;;5018720;28;20538;-58
2023/10/28 04:42:48;;;;;;;0.50;0.50;;;;;;;;;;5019017;28;20217;-58
2023/10/28 04:45:16;;;;;;;0.57;0.50;;;;;;;;;;5018615;28;20210;-58
2023/10/28 04:47:43;;;;;;;0.57;0.43;;;;;;;;;;5018339;28;20337;-58
2023/10/28 04:50:12;;;;;;;0.40;0.40;;;;;;;;;;5018835;28;20213;-58
2023/10/28 04:52:40;;;;;;;0.40;0.40;;;;;;;;;;5018424;28;20597;-58
2023/10/28 04:55:08;;;;;;;0.60;0.40;;;;;;;;;;5018597;28;20207;-58
2023/10/28 04:57:36;;;;;;;0.40;0.40;;;;;;;;;;5018272;28;20475;-58
2023/10/28 05:00:04;;;;;;;0.85;0.40;;;;;;;;;;5017960;28;20249;-58
2023/10/28 05:02:34;;;;;;;0.40;0.32;;;;;;;;;;5017812;28;20206;-58
2023/10/28 05:05:01;;;;;;;0.47;0.45;;;;;;;;;;5018495;28;20206;-58
2023/10/28 05:07:30;;;;;;;0.50;0.50;;;;;;;;;;5018003;28;20206;-57
2023/10/28 05:09:58;;;;;;;0.63;0.57;;;;;;;;;;5017437;28;20293;-58
2023/10/28 05:12:26;;;;;;;0.30;0.30;;;;;;;;;;5018001;28;20207;-58
2023/10/28 05:14:53;;;;;;;0.52;0.52;;;;;;;;;;5018456;28;20206;-58
2023/10/28 05:17:21;;;;;;;0.73;0.30;;;;;;;;;;5017944;28;20591;-58
2023/10/28 05:19:48;;;;;;;0.60;0.57;;;;;;;;;;5017969;28;20234;-58
2023/10/28 05:22:17;;;;;;;0.45;0.45;;;;;;;;;;5018175;28;20490;-58
2023/10/28 05:24:45;;;;;;;0.50;0.30;;;;;;;;;;5017973;28;20591;-58
2023/10/28 05:27:13;;;;;;;0.40;0.40;;;;;;;;;;5018172;28;20206;-58
2023/10/28 05:29:40;;;;;;;0.40;0.40;;;;;;;;;;5017942;28;20206;-58
2023/10/28 05:32:08;;;;;;;0.60;0.47;;;;;;;;;;5017958;28;20206;-58
2023/10/28 05:34:36;;;;;;;0.50;0.43;;;;;;;;;;5017608;28;20297;-58
2023/10/28 05:37:03;;;;;;;0.43;0.43;;;;;;;;;;5017799;28;20632;-58
2023/10/28 05:39:31;;;;;;;0.40;0.40;;;;;;;;;;5017118;28;20228;-57
2023/10/28 05:41:59;;;;;;;0.60;0.60;;;;;;;;;;5017356;28;20214;-57
2023/10/28 05:44:27;;;;;;;0.60;0.60;;;;;;;;;;5017146;28;20217;-57
2023/10/28 05:46:55;;;;;;;0.40;0.40;;;;;;;;;;5017465;28;20594;-57
2023/10/28 05:49:22;;;;;;;0.50;0.50;;;;;;;;;;5017582;28;20260;-57
2023/10/28 05:51:50;;;;;;;0.73;0.40;;;;;;;;;;5016953;28;20230;-57
2023/10/28 05:54:17;;;;;;;0.77;0.40;;;;;;;;;;5017090;28;20493;-57
2023/10/28 05:56:44;;;;;;;0.50;0.50;;;;;;;;;;5017031;28;20213;-57
2023/10/28 05:59:14;;;;;;;0.52;0.40;;;;;;;;;;5017249;28;20463;-57
2023/10/28 06:01:42;;;;;;;0.40;0.40;;;;;;;;;;5017278;28;20226;-57
2023/10/28 06:04:10;;;;;;;0.60;0.40;;;;;;;;;;5017355;28;20571;-57
2023/10/28 06:06:37;;;;;;;0.40;0.40;;;;;;;;;;5017184;28;20206;-57
2023/10/28 06:09:05;;;;;;;0.50;0.50;;;;;;;;;;5016951;28;20241;-57
2023/10/28 06:11:32;;;;;;;0.50;0.50;;;;;;;;;;5016462;28;20277;-57
2023/10/28 06:14:01;;;;;;;0.50;0.40;;;;;;;;;;5019239;28;20206;-57
2023/10/28 06:16:30;;;;;;;0.40;0.40;;;;;;;;;;5021096;28;20268;-58
2023/10/28 06:18:57;;;;;;;0.50;0.50;;;;;;;;;;5021258;28;20217;-58
2023/10/28 06:21:25;;;;;;;0.38;0.38;;;;;;;;;;5020585;28;20230;-58
2023/10/28 06:23:52;;;;;;;0.40;0.40;;;;;;;;;;5020753;28;20289;-58
2023/10/28 06:26:19;;;;;;;1.00;0.57;;;;;;;;;;5020710;28;20213;-58
2023/10/28 06:28:47;;;;;;;0.40;0.40;;;;;;;;;;5021031;28;20606;-58
2023/10/28 06:31:15;;;;;;;0.30;0.30;;;;;;;;;;5020630;28;20202;-58
2023/10/28 06:33:44;;;;;;;0.70;0.40;;;;;;;;;;5020722;28;20286;-57
2023/10/28 06:36:11;;;;;;;0.45;0.45;;;;;;;;;;5021052;28;20217;-57
2023/10/28 06:38:40;;;;;;;0.43;0.40;;;;;;;;;;5020743;28;20213;-57
2023/10/28 06:41:09;;;;;;;0.30;0.30;;;;;;;;;;5020905;28;20470;-57
2023/10/28 06:43:36;;;;;;;0.40;0.40;;;;;;;;;;5021002;28;20206;-57
2023/10/28 06:46:04;;;;;;;0.40;0.40;;;;;;;;;;5020454;28;20206;-57
2023/10/28 06:48:33;;;;;;;0.40;0.40;;;;;;;;;;5020491;28;20206;-57
2023/10/28 06:51:03;;;;;;;0.50;0.40;;;;;;;;;;5020220;28;20484;-57
2023/10/28 06:53:31;;;;;;;0.40;0.38;;;;;;;;;;5020282;28;20218;-57
2023/10/28 06:55:58;;;;;;;0.35;0.35;;;;;;;;;;5020093;28;20561;-57
2023/10/28 06:58:25;;;;;;;0.40;0.38;;;;;;;;;;5019682;28;20292;-57
2023/10/28 07:00:53;;;;;;;1.15;0.40;;;;;;;;;;5019516;28;20241;-57
2023/10/28 07:03:20;;;;;;;0.50;0.50;;;;;;;;;;5019506;28;20213;-57
2023/10/28 07:05:47;;;;;;;0.38;0.38;;;;;;;;;;5019156;28;20507;-57
2023/10/28 07:08:18;;;;;;;0.43;0.43;;;;;;;;;;5019743;28;20209;-57
2023/10/28 07:10:45;;;;;;;0.50;0.50;;;;;;;;;;5019307;28;20203;-58
2023/10/28 07:13:13;;;;;;;0.30;0.30;;;;;;;;;;5019597;28;20213;-58
2023/10/28 07:15:40;;;;;;;0.40;0.40;;;;;;;;;;5019026;28;20268;-58
2023/10/28 07:18:08;;;;;;;0.40;0.40;;;;;;;;;;5019084;28;20217;-58
2023/10/28 07:20:35;;;;;;;0.38;0.38;;;;;;;;;;5019345;28;20548;-58
2023/10/28 07:23:03;;;;;;;0.50;0.50;;;;;;;;;;5019071;28;20213;-58
2023/10/28 07:25:32;;;;;;;0.35;0.35;;;;;;;;;;5018146;28;20237;-58
2023/10/28 07:27:59;;;;;;;0.85;0.38;;;;;;;;;;5019147;28;20214;-57
2023/10/28 07:30:27;;;;;;;0.40;0.40;;;;;;;;;;5019231;28;20598;-58
2023/10/28 07:32:54;;;;;;;0.40;0.40;;;;;;;;;;5019491;28;20218;-58
2023/10/28 07:35:21;;;;;;;0.45;0.40;;;;;;;;;;5019005;28;20214;-58
2023/10/28 07:37:49;;;;;;;0.30;0.30;;;;;;;;;;5019260;28;20768;-58
2023/10/28 07:40:16;;;;;;;0.50;0.50;;;;;;;;;;5019058;28;20217;-58
2023/10/28 07:42:46;;;;;;;0.40;0.40;;;;;;;;;;5018917;28;20221;-58
2023/10/28 07:45:14;;;;;;;0.40;0.40;;;;;;;;;;5018893;28;20213;-58
2023/10/28 07:47:41;;;;;;;0.50;0.40;;;;;;;;;;5018695;28;20206;-58
2023/10/28 07:50:09;;;;;;;0.40;0.40;;;;;;;;;;5019664;28;20201;-58
2023/10/28 07:52:36;;;;;;;0.70;0.30;;;;;;;;;;5038402;28;20230;-58
2023/10/28 07:55:04;;;;;;;0.98;0.40;;;;;;;;;;5038013;28;20205;-57
2023/10/28 07:57:32;;;;;;;0.55;0.50;;;;;;;;;;5038538;28;20206;-57
2023/10/28 08:00:01;;;;;;;0.40;0.40;;;;;;;;;;5037224;28;20234;-57
2023/10/28 08:02:28;;;;;;;0.47;0.47;;;;;;;;;;5037498;28;20229;-57
2023/10/28 08:04:55;;;;;;;0.52;0.52;;;;;;;;;;5038052;28;20578;-57
2023/10/28 08:07:24;;;;;;;0.60;0.40;;;;;;;;;;5037609;28;20209;-57
2023/10/28 08:09:51;;;;;;;0.40;0.40;;;;;;;;;;5037812;28;20213;-57
2023/10/28 08:12:19;;;;;;;1.05;0.60;;;;;;;;;;5037455;28;20194;-57
2023/10/28 08:14:47;;;;;;;0.95;0.60;;;;;;;;;;5037102;28;20604;-57
2023/10/28 08:17:16;;;;;;;0.55;0.40;;;;;;;;;;5037406;28;20206;-57
2023/10/28 08:19:43;;;;;;;0.77;0.47;;;;;;;;;;5037608;28;20209;-58
2023/10/28 08:22:12;;;;;;;0.38;0.32;;;;;;;;;;5037477;28;20230;-58
2023/10/28 08:24:41;;;;;;;1.20;0.45;;;;;;;;;;5037766;28;20271;-57
2023/10/28 08:27:09;;;;;;;1.30;0.40;;;;;;;;;;5036660;28;20216;-57
2023/10/28 08:29:37;;;;;;;0.50;0.50;;;;;;;;;;5037174;28;20237;-57
2023/10/28 08:32:05;;;;;;;0.45;0.45;;;;;;;;;;5036884;28;20197;-57
2023/10/28 08:34:34;;;;;;;0.82;0.50;;;;;;;;;;5037304;28;20491;-57
2023/10/28 08:37:02;;;;;;;0.88;0.60;;;;;;;;;;5035449;28;20697;-57
2023/10/28 08:39:31;;;;;;;0.82;0.50;;;;;;;;;;5038117;28;20304;-57
2023/10/28 08:41:59;;;;;;;0.63;0.40;;;;;;;;;;5037281;28;20248;-57
2023/10/28 08:44:28;;;;;;;0.60;0.40;;;;;;;;;;5037313;28;20212;-57
2023/10/28 08:46:56;;;;;;;1.10;0.50;;;;;;;;;;5036555;28;20272;-57
2023/10/28 08:49:25;;;;;;;0.93;0.40;;;;;;;;;;5036397;28;20492;-57
2023/10/28 08:51:57;;;;;;;1.77;0.75;;;;;;;;;;5037072;28;20656;-57
2023/10/28 08:54:27;;;;;;;0.75;0.52;;;;;;;;;;5036737;28;20280;-57
2023/10/28 08:56:56;;;;;;;0.52;0.50;;;;;;;;;;5037119;28;20550;-57
2023/10/28 08:59:23;;;;;;;0.90;0.40;;;;;;;;;;5036409;28;20206;-57
2023/10/28 09:01:51;;;;;;;1.35;0.47;;;;;;;;;;5036124;28;20225;-57
2023/10/28 09:04:21;;;;;;;0.57;0.50;;;;;;;;;;5037046;28;20205;-57
2023/10/28 09:06:48;;;;;;;1.13;0.60;;;;;;;;;;5035554;28;20626;-57
2023/10/28 09:09:21;;;;;;;0.93;0.60;;;;;;;;;;5035847;28;20201;-57
2023/10/28 09:11:49;;;;;;;1.70;0.70;;;;;;;;;;5036140;28;20208;-57
2023/10/28 09:14:16;;;;;;;1.15;0.50;;;;;;;;;;5036821;28;20597;-57
2023/10/28 09:16:44;;;;;;;1.13;0.50;;;;;;;;;;5035775;28;20675;-57
2023/10/28 09:19:20;;;;;;;0.98;0.60;;;;;;;;;;5035983;28;20213;-57
2023/10/28 09:21:48;;;;;;;0.80;0.40;;;;;;;;;;5036593;28;20680;-57
2023/10/28 09:24:15;;;;;;;1.05;0.60;;;;;;;;;;5035902;28;20213;-57
2023/10/28 09:26:46;;;;;;;1.30;0.60;;;;;;;;;;5036174;28;20206;-57
2023/10/28 09:29:23;;;;;;;2.13;0.47;;;;;;;;;;5036218;28;20206;-57
2023/10/28 09:31:51;;;;;;;2.17;0.40;;;;;;;;;;5035411;28;20209;-57
2023/10/28 09:34:20;;;;;;;1.48;0.65;;;;;;;;;;5025317;28;20198;-57
2023/10/28 09:36:47;;;;;;;0.82;0.60;;;;;;;;;;5015971;28;20214;-57
2023/10/28 09:39:15;;;;;;;1.02;0.70;;;;;;;;;;5016106;28;20702;-57
2023/10/28 09:41:43;;;;;;;0.98;0.70;;;;;;;;;;5016048;28;20223;-57
2023/10/28 09:44:12;;;;;;;3.28;0.50;;;;;;;;;;5016413;28;20233;-57
2023/10/28 09:46:41;;;;;;;2.38;0.80;;;;;;;;;;5016172;28;20210;-58
2023/10/28 09:49:09;;;;;;;0.77;0.60;;;;;;;;;;5015964;28;20207;-57
2023/10/28 09:51:39;;;;;;;1.45;0.43;;;;;;;;;;5015513;28;20249;-57
2023/10/28 09:54:08;;;;;;;0.63;0.47;;;;;;;;;;5015850;28;20217;-57
2023/10/28 09:56:36;;;;;;;0.90;0.63;;;;;;;;;;5015574;28;20249;-57
2023/10/28 09:59:07;;;;;;;0.98;0.70;;;;;;;;;;5016318;28;20214;-57
2023/10/28 10:01:37;;;;;;;1.88;0.60;;;;;;;;;;5015760;28;20226;-57
2023/10/28 10:04:08;;;;;;;2.00;0.60;;;;;;;;;;5015864;28;20210;-57
2023/10/28 10:06:36;;;;;;;1.15;0.57;;;;;;;;;;5016172;28;20206;-57
2023/10/28 10:09:04;;;;;;;1.25;0.50;;;;;;;;;;5015405;28;20296;-57
2023/10/28 10:11:32;;;;;;;0.77;0.52;;;;;;;;;;5015754;28;20348;-57
2023/10/28 10:14:09;;;;;;;1.17;0.70;;;;;;;;;;5015681;28;20206;-57
2023/10/28 10:16:46;;;;;;;0.90;0.50;;;;;;;;;;5015488;28;20202;-57
2023/10/28 10:19:15;;;;;;;1.48;0.65;;;;;;;;;;5015319;28;20217;-58
2023/10/28 10:21:51;;;;;;;1.17;0.60;;;;;;;;;;5015381;28;20532;-58
2023/10/28 10:24:20;;;;;;;1.88;0.80;;;;;;;;;;5016217;28;20213;-58
2023/10/28 10:26:54;;;;;;;1.60;0.70;;;;;;;;;;5014806;28;20475;-57
2023/10/28 10:29:22;;;;;;;0.50;0.50;;;;;;;;;;5014561;28;20320;-57
2023/10/28 10:31:52;;;;;;;0.85;0.60;;;;;;;;;;5014812;28;20209;-57
2023/10/28 10:34:33;;;;;;;0.85;0.57;;;;;;;;;;5014600;28;20298;-57
2023/10/28 10:37:01;;;;;;;1.20;0.73;;;;;;;;;;5014580;28;20594;-58
2023/10/28 10:39:28;;;;;;;0.98;0.68;;;;;;;;;;5014190;28;20269;-58
2023/10/28 10:41:56;;;;;;;2.95;0.70;;;;;;;;;;5013788;28;20234;-58
2023/10/28 10:44:33;;;;;;;0.93;0.55;;;;;;;;;;5014270;28;20214;-58
2023/10/28 10:47:02;;;;;;;0.90;0.55;;;;;;;;;;5014948;28;20541;-58
2023/10/28 10:49:31;;;;;;;1.13;0.63;;;;;;;;;;5014199;28;20221;-58
2023/10/28 10:52:00;;;;;;;1.73;0.70;;;;;;;;;;5014351;28;20296;-58
2023/10/28 10:54:31;;;;;;;0.93;0.60;;;;;;;;;;5014478;28;20291;-57
2023/10/28 10:56:58;;;;;;;0.95;0.70;;;;;;;;;;5014439;28;20214;-57
2023/10/28 10:59:26;;;;;;;0.50;0.43;;;;;;;;;;5015005;28;20206;-57
2023/10/28 11:01:54;;;;;;;1.42;0.70;;;;;;;;;;5018141;28;20242;-57
2023/10/28 11:04:23;;;;;;;1.40;0.85;;;;;;;;;;5018332;28;20483;-57
2023/10/28 11:06:51;;;;;;;0.80;0.63;;;;;;;;;;5018912;28;20255;-57
2023/10/28 11:09:19;;;;;;;2.08;0.50;;;;;;;;;;5018498;28;20207;-57
2023/10/28 11:11:46;;;;;;;1.20;0.57;;;;;;;;;;5018210;28;20202;-57
2023/10/28 11:14:13;;;;;;;0.88;0.57;;;;;;;;;;5018394;28;20213;-58
2023/10/28 11:16:41;;;;;;;2.15;0.90;;;;;;;;;;5017728;28;20217;-58
2023/10/28 11:19:09;;;;;;;0.90;0.60;;;;;;;;;;5018170;28;20207;-57
2023/10/28 11:21:39;;;;;;;1.35;0.60;;;;;;;;;;5017125;28;20230;-57
2023/10/28 11:24:08;;;;;;;1.08;0.52;;;;;;;;;;5017854;28;20257;-58
2023/10/28 11:26:36;;;;;;;1.35;0.57;;;;;;;;;;5017916;28;20571;-58
2023/10/28 11:29:09;;;;;;;1.23;0.75;;;;;;;;;;5018419;28;20305;-58
2023/10/28 11:31:40;;;;;;;0.63;0.50;;;;;;;;;;5017538;28;20209;-57
2023/10/28 11:34:08;;;;;;;0.73;0.52;;;;;;;;;;5017682;28;20687;-58
2023/10/28 11:36:35;;;;;;;1.17;0.80;;;;;;;;;;5016722;28;20198;-58
2023/10/28 11:39:11;;;;;;;1.73;0.60;;;;;;;;;;5017309;28;20198;-58
2023/10/28 11:41:38;;;;;;;1.38;0.60;;;;;;;;;;5017497;28;20256;-58
2023/10/28 11:44:06;;;;;;;1.35;0.70;;;;;;;;;;5017698;28;20256;-57
2023/10/28 11:46:34;;;;;;;1.55;0.70;;;;;;;;;;5017350;28;20578;-57
2023/10/28 11:49:03;;;;;;;1.35;0.60;;;;;;;;;;5017696;28;20582;-57
2023/10/28 11:51:30;;;;;;;1.05;0.70;;;;;;;;;;5022021;28;20323;-57
2023/10/28 11:53:58;;;;;;;1.27;0.63;;;;;;;;;;5043558;28;20233;-58
2023/10/28 11:56:27;;;;;;;1.25;0.60;;;;;;;;;;5045801;28;20624;-57
2023/10/28 11:58:54;;;;;;;1.50;0.60;;;;;;;;;;5020469;28;20346;-57
2023/10/28 12:01:22;;;;;;;1.13;0.57;;;;;;;;;;5017728;28;20238;-58
2023/10/28 12:03:49;;;;;;;0.85;0.52;;;;;;;;;;5017442;28;20222;-58
2023/10/28 12:06:17;;;;;;;0.82;0.55;;;;;;;;;;5016877;28;20738;-58
2023/10/28 12:08:44;;;;;;;1.17;0.90;;;;;;;;;;5017464;28;20301;-58
2023/10/28 12:11:12;;;;;;;1.10;0.65;;;;;;;;;;5016881;28;20211;-58
2023/10/28 12:13:40;;;;;;;0.70;0.40;;;;;;;;;;5016374;28;20723;-58
2023/10/28 12:16:09;;;;;;;1.83;0.60;;;;;;;;;;5016848;28;20732;-58
2023/10/28 12:18:37;;;;;;;0.90;0.80;;;;;;;;;;5017108;28;20206;-57
2023/10/28 12:21:04;;;;;;;0.88;0.57;;;;;;;;;;5016880;28;20206;-57
2023/10/28 12:23:32;;;;;;;1.17;0.60;;;;;;;;;;5016507;28;20233;-57
2023/10/28 12:25:59;;;;;;;1.73;0.63;;;;;;;;;;5016664;28;20207;-57
2023/10/28 12:28:27;;;;;;;1.15;0.80;;;;;;;;;;5016238;28;20237;-57
2023/10/28 12:30:55;;;;;;;0.73;0.50;;;;;;;;;;5016120;28;20218;-57
2023/10/28 12:33:23;;;;;;;1.65;0.90;;;;;;;;;;5016777;28;20220;-57
2023/10/28 12:35:50;;;;;;;1.00;0.57;;;;;;;;;;5016673;28;20214;-57
2023/10/28 12:38:17;;;;;;;0.90;0.77;;;;;;;;;;5016828;28;20206;-57
2023/10/28 12:40:45;;;;;;;1.13;0.73;;;;;;;;;;5016914;28;20206;-58
2023/10/28 12:43:12;;;;;;;1.17;0.68;;;;;;;;;;5016489;28;20525;-58
2023/10/28 12:45:39;;;;;;;0.93;0.60;;;;;;;;;;5016368;28;20207;-58
2023/10/28 12:48:08;;;;;;;1.15;0.80;;;;;;;;;;5016448;28;20493;-58
2023/10/28 12:50:36;;;;;;;1.02;0.80;;;;;;;;;;5015244;28;20211;-58
2023/10/28 12:53:03;;;;;;;2.00;0.60;;;;;;;;;;5016151;28;20329;-58
2023/10/28 12:55:31;;;;;;;1.67;0.80;;;;;;;;;;5015752;28;20300;-58
2023/10/28 12:57:58;;;;;;;1.42;0.80;;;;;;;;;;5015760;28;20218;-58
2023/10/28 13:00:27;;;;;;;1.67;0.63;;;;;;;;;;5015860;28;20281;-58
2023/10/28 13:02:54;;;;;;;1.85;0.75;;;;;;;;;;5016304;28;20649;-57
2023/10/28 13:05:23;;;;;;;1.10;0.50;;;;;;;;;;5015301;28;20198;-57
2023/10/28 13:07:51;;;;;;;1.08;0.50;;;;;;;;;;5016265;28;20692;-57
2023/10/28 13:10:19;;;;;;;1.15;0.73;;;;;;;;;;5015475;28;20257;-57
2023/10/28 13:12:47;;;;;;;1.05;0.60;;;;;;;;;;5014893;28;20206;-58
2023/10/28 13:15:14;;;;;;;1.13;0.60;;;;;;;;;;5015475;28;20248;-58
2023/10/28 13:17:42;;;;;;;0.68;0.52;;;;;;;;;;5015127;28;20202;-58
2023/10/28 13:20:10;;;;;;;1.00;0.60;;;;;;;;;;5014999;28;20206;-58
2023/10/28 13:22:39;;;;;;;1.73;0.70;;;;;;;;;;5014305;28;20219;-57
2023/10/28 13:25:07;;;;;;;1.05;0.77;;;;;;;;;;5015122;28;20893;-57
2023/10/28 13:27:34;;;;;;;1.73;0.80;;;;;;;;;;5015085;28;20277;-57
2023/10/28 13:30:04;;;;;;;1.05;0.50;;;;;;;;;;5015616;28;20206;-57
2023/10/28 13:32:32;;;;;;;1.00;0.65;;;;;;;;;;5015586;28;20203;-57
2023/10/28 13:35:00;;;;;;;1.10;0.73;;;;;;;;;;5015166;28;20210;-57
2023/10/28 13:37:27;;;;;;;1.33;0.75;;;;;;;;;;5015240;28;20204;-57
2023/10/28 13:39:56;;;;;;;0.95;0.63;;;;;;;;;;5014835;28;20233;-57
2023/10/28 13:42:23;;;;;;;1.42;0.77;;;;;;;;;;5015643;28;20230;-57
2023/10/28 13:44:51;;;;;;;2.67;0.90;;;;;;;;;;5015180;28;20533;-57
2023/10/28 13:47:19;;;;;;;1.85;0.82;;;;;;;;;;5014998;28;20213;-58
2023/10/28 13:49:47;;;;;;;1.27;0.65;;;;;;;;;;5015138;28;20230;-58
2023/10/28 13:52:14;;;;;;;2.83;0.93;;;;;;;;;;5014640;28;20234;-58
2023/10/28 13:54:42;;;;;;;1.83;0.80;;;;;;;;;;5014607;28;20206;-58
2023/10/28 13:57:11;;;;;;;1.00;0.70;;;;;;;;;;5014073;28;20245;-57
2023/10/28 13:59:39;;;;;;;1.02;0.80;;;;;;;;;;5013542;28;20637;-57
2023/10/28 14:02:08;;;;;;;1.42;0.70;;;;;;;;;;5015089;28;20206;-57
2023/10/28 14:04:41;;;;;;;1.58;0.60;;;;;;;;;;5015008;28;20194;-57
2023/10/28 14:07:08;;;;;;;2.28;0.80;;;;;;;;;;5014642;28;20206;-57
2023/10/28 14:09:36;;;;;;;2.35;0.90;;;;;;;;;;5014519;28;20515;-57
2023/10/28 14:12:03;;;;;;;1.80;0.75;;;;;;;;;;5014812;28;20300;-58
2023/10/28 14:14:32;;;;;;;0.80;0.63;;;;;;;;;;5014454;28;20602;-57
2023/10/28 14:17:00;;;;;;;1.00;0.60;;;;;;;;;;5014220;28;20240;-57
2023/10/28 14:19:27;;;;;;;1.42;1.00;;;;;;;;;;5014031;28;20633;-57
2023/10/28 14:21:54;;;;;;;1.52;0.70;;;;;;;;;;5014574;28;20221;-57
2023/10/28 14:24:22;;;;;;;1.33;0.70;;;;;;;;;;5014386;28;20292;-57
2023/10/28 14:26:49;;;;;;;2.17;1.00;;;;;;;;;;5014619;28;20206;-57
2023/10/28 14:29:17;;;;;;;2.08;0.90;;;;;;;;;;5014300;28;20217;-57
2023/10/28 14:31:46;;;;;;;1.25;0.68;;;;;;;;;;5014339;28;20616;-57
2023/10/28 14:34:15;;;;;;;1.63;0.70;;;;;;;;;;5012802;28;20194;-57
2023/10/28 14:36:42;;;;;;;1.65;0.70;;;;;;;;;;5017431;28;20321;-57
2023/10/28 14:39:10;;;;;;;1.75;1.00;;;;;;;;;;5028010;28;20236;-58
2023/10/28 14:41:41;;;;;;;0.82;0.65;;;;;;;;;;5037930;28;20217;-58
2023/10/28 14:44:08;;;;;;;1.08;0.60;;;;;;;;;;5038335;28;20232;-58
2023/10/28 14:46:35;;;;;;;1.40;0.70;;;;;;;;;;5038431;28;20309;-58
2023/10/28 14:49:04;;;;;;;2.92;0.90;;;;;;;;;;5037952;28;20705;-58